createdAt,value
2018-05-10T00:01:46.662Z,16.57
2018-05-10T00:04:14.113Z,16.51
2018-05-10T00:06:41.573Z,16.55
2018-05-10T00:09:09.053Z,16.61
2018-05-10T00:11:36.506Z,16.61
2018-05-10T00:14:03.984Z,16.57
2018-05-10T00:16:31.542Z,16.41
2018-05-10T00:18:58.988Z,16.55
2018-05-10T00:21:26.435Z,16.60
2018-05-10T00:23:53.910Z,16.64
2018-05-10T00:26:21.410Z,16.67
2018-05-10T00:28:48.854Z,16.63
2018-05-10T00:31:16.299Z,16.69
2018-05-10T00:33:43.749Z,16.64
2018-05-10T00:36:11.215Z,16.72
2018-05-10T00:38:38.648Z,16.64
2018-05-10T00:41:06.086Z,16.63
2018-05-10T00:43:33.522Z,16.63
2018-05-10T00:46:00.977Z,16.55
2018-05-10T00:48:28.482Z,16.31
2018-05-10T00:50:55.966Z,16.35
2018-05-10T00:53:23.422Z,16.40
2018-05-10T00:55:50.878Z,16.36
2018-05-10T00:58:18.320Z,16.40
2018-05-10T01:00:45.786Z,16.32
2018-05-10T01:03:13.971Z,16.22
2018-05-10T01:05:41.414Z,16.28
2018-05-10T01:08:08.898Z,16.18
2018-05-10T01:10:36.345Z,16.12
2018-05-10T01:13:03.796Z,16.23
2018-05-10T01:15:31.253Z,16.14
2018-05-10T01:17:58.809Z,16.14
2018-05-10T01:20:26.255Z,16.05
2018-05-10T01:22:53.806Z,16.11
2018-05-10T01:25:21.284Z,16.21
2018-05-10T01:27:48.757Z,15.96
2018-05-10T01:30:16.216Z,15.98
2018-05-10T01:32:43.681Z,15.95
2018-05-10T01:35:22.854Z,15.89
2018-05-10T01:37:50.294Z,15.81
2018-05-10T01:40:17.766Z,15.75
2018-05-10T01:42:45.192Z,15.68
2018-05-10T01:45:12.660Z,15.57
2018-05-10T01:47:40.214Z,15.35
2018-05-10T01:50:07.689Z,15.32
2018-05-10T01:52:35.228Z,15.27
2018-05-10T01:55:02.710Z,15.19
2018-05-10T01:57:30.158Z,15.06
2018-05-10T01:59:57.621Z,15.00
2018-05-10T02:02:25.070Z,15.00
2018-05-10T02:04:52.518Z,14.92
2018-05-10T02:07:19.978Z,14.82
2018-05-10T02:09:47.464Z,14.87
2018-05-10T02:12:14.922Z,14.84
2018-05-10T02:14:42.377Z,14.75
2018-05-10T02:17:09.836Z,14.73
2018-05-10T02:19:37.289Z,14.74
2018-05-10T02:22:04.752Z,14.68
2018-05-10T02:24:32.189Z,14.72
2018-05-10T02:26:59.630Z,14.79
2018-05-10T02:29:27.074Z,14.86
2018-05-10T02:31:54.535Z,15.00
2018-05-10T02:34:22.002Z,15.15
2018-05-10T02:36:49.444Z,15.17
2018-05-10T02:39:16.962Z,15.29
2018-05-10T02:41:44.423Z,15.34
2018-05-10T02:44:11.877Z,15.42
2018-05-10T02:46:39.326Z,15.52
2018-05-10T02:49:06.773Z,15.52
2018-05-10T02:51:34.216Z,15.50
2018-05-10T02:54:01.788Z,15.60
2018-05-10T02:56:29.221Z,15.62
2018-05-10T02:58:56.691Z,15.57
2018-05-10T03:01:24.139Z,15.60
2018-05-10T03:03:51.583Z,15.70
2018-05-10T03:06:19.068Z,15.72
2018-05-10T03:08:46.535Z,15.83
2018-05-10T03:11:13.981Z,15.81
2018-05-10T03:13:41.419Z,15.85
2018-05-10T03:16:08.872Z,15.74
2018-05-10T03:18:36.312Z,15.79
2018-05-10T03:21:03.760Z,15.77
2018-05-10T03:23:31.566Z,15.84
2018-05-10T03:25:59.018Z,15.99
2018-05-10T03:28:26.464Z,16.01
2018-05-10T03:30:53.929Z,15.96
2018-05-10T03:33:22.379Z,15.91
2018-05-10T03:35:49.909Z,15.91
2018-05-10T03:38:17.401Z,15.80
2018-05-10T03:40:44.872Z,15.90
2018-05-10T03:43:12.680Z,15.91
2018-05-10T03:45:40.131Z,15.96
2018-05-10T03:48:07.600Z,16.05
2018-05-10T03:50:35.061Z,16.14
2018-05-10T03:53:02.614Z,16.13
2018-05-10T03:55:30.073Z,16.21
2018-05-10T03:57:57.516Z,16.26
2018-05-10T04:00:25.056Z,16.30
2018-05-10T04:06:19.005Z,16.47
2018-05-10T04:08:58.361Z,16.48
2018-05-10T04:11:28.562Z,16.47
2018-05-10T04:13:56.017Z,16.66
2018-05-10T04:16:23.569Z,16.61
2018-05-10T04:18:51.936Z,16.75
2018-05-10T04:21:19.400Z,16.72
2018-05-10T04:23:46.922Z,16.78
2018-05-10T04:26:14.314Z,16.80
2018-05-10T04:28:41.894Z,16.73
2018-05-10T04:31:09.361Z,16.80
2018-05-10T04:33:36.833Z,16.93
2018-05-10T04:36:04.317Z,17.01
2018-05-10T04:38:31.769Z,17.21
2018-05-10T04:40:59.276Z,17.21
2018-05-10T04:43:26.730Z,17.41
2018-05-10T04:45:54.177Z,17.48
2018-05-10T04:48:21.636Z,17.79
2018-05-10T04:50:49.141Z,17.84
2018-05-10T04:53:16.603Z,18.19
2018-05-10T04:55:44.054Z,18.51
2018-05-10T04:58:11.515Z,18.82
2018-05-10T05:00:38.989Z,18.62
2018-05-10T05:03:06.455Z,18.81
2018-05-10T05:05:33.897Z,19.27
2018-05-10T05:08:01.387Z,19.09
2018-05-10T05:10:28.850Z,18.96
2018-05-10T05:12:56.306Z,19.02
2018-05-10T05:15:23.761Z,19.36
2018-05-10T05:17:51.215Z,19.35
2018-05-10T05:20:18.657Z,19.40
2018-05-10T05:22:46.116Z,19.58
2018-05-10T05:25:13.559Z,19.76
2018-05-10T05:27:40.998Z,20.01
2018-05-10T05:30:08.458Z,20.40
2018-05-10T05:32:35.886Z,20.78
2018-05-10T05:35:03.335Z,20.99
2018-05-10T05:37:30.789Z,21.22
2018-05-10T05:39:58.249Z,21.10
2018-05-10T05:42:25.708Z,21.60
2018-05-10T05:44:53.156Z,21.28
2018-05-10T05:47:20.614Z,21.86
2018-05-10T05:49:48.074Z,21.99
2018-05-10T05:52:15.524Z,21.22
2018-05-10T05:54:42.998Z,21.75
2018-05-10T05:57:10.462Z,21.28
2018-05-10T05:59:37.956Z,21.47
2018-05-10T06:02:05.409Z,21.77
2018-05-10T06:04:32.934Z,21.80
2018-05-10T06:07:00.458Z,21.55
2018-05-10T06:09:27.889Z,21.70
2018-05-10T06:11:55.360Z,21.71
2018-05-10T06:14:24.259Z,22.05
2018-05-10T06:16:52.276Z,21.88
2018-05-10T06:19:19.736Z,21.67
2018-05-10T06:21:47.234Z,21.54
2018-05-10T06:24:14.688Z,21.26
2018-05-10T06:26:42.129Z,21.37
2018-05-10T06:29:09.591Z,21.52
2018-05-10T06:31:37.045Z,21.56
2018-05-10T06:34:04.547Z,21.38
2018-05-10T06:36:32.022Z,21.46
2018-05-10T06:38:59.476Z,21.52
2018-05-10T06:41:27.195Z,22.19
2018-05-10T06:43:54.594Z,22.18
2018-05-10T06:46:22.051Z,22.53
2018-05-10T06:48:49.511Z,22.23
2018-05-10T06:51:17.043Z,22.17
2018-05-10T06:53:44.574Z,22.11
2018-05-10T06:56:12.169Z,21.98
2018-05-10T06:58:39.609Z,21.96
2018-05-10T07:01:07.166Z,21.87
2018-05-10T07:03:34.617Z,21.79
2018-05-10T07:06:02.106Z,21.98
2018-05-10T07:08:29.650Z,21.62
2018-05-10T07:10:57.185Z,21.74
2018-05-10T07:13:24.957Z,22.03
2018-05-10T07:15:52.435Z,22.06
2018-05-10T07:18:19.893Z,21.77
2018-05-10T07:20:47.422Z,22.14
2018-05-10T07:23:15.491Z,22.18
2018-05-10T07:25:42.946Z,21.94
2018-05-10T07:28:10.496Z,21.90
2018-05-10T07:30:37.944Z,21.82
2018-05-10T07:33:05.413Z,21.90
2018-05-10T07:35:32.852Z,21.93
2018-05-10T07:38:00.293Z,21.71
2018-05-10T07:40:27.781Z,21.57
2018-05-10T07:42:55.254Z,21.69
2018-05-10T07:45:22.700Z,21.40
2018-05-10T07:47:50.141Z,21.70
2018-05-10T07:50:17.649Z,22.15
2018-05-10T07:52:45.180Z,22.75
2018-05-10T07:55:12.655Z,22.71
2018-05-10T07:57:40.137Z,23.56
2018-05-10T08:00:10.327Z,23.83
2018-05-10T08:02:37.895Z,23.94
2018-05-10T08:05:05.349Z,24.13
2018-05-10T08:07:32.808Z,24.30
2018-05-10T08:10:00.284Z,23.27
2018-05-10T08:12:27.732Z,23.32
2018-05-10T08:14:55.185Z,23.45
2018-05-10T08:17:22.655Z,23.95
2018-05-10T08:19:50.113Z,24.28
2018-05-10T08:22:17.606Z,24.33
2018-05-10T08:24:45.062Z,24.42
2018-05-10T08:27:12.552Z,24.69
2018-05-10T08:29:40.044Z,25.23
2018-05-10T08:32:07.562Z,25.25
2018-05-10T08:34:36.010Z,24.68
2018-05-10T08:37:03.525Z,25.03
2018-05-10T08:39:31.035Z,24.96
2018-05-10T08:41:58.538Z,25.23
2018-05-10T08:44:25.989Z,24.00
2018-05-10T08:46:53.460Z,24.38
2018-05-10T08:49:20.919Z,25.38
2018-05-10T08:51:48.615Z,25.37
2018-05-10T08:54:15.999Z,25.41
2018-05-10T08:56:43.461Z,25.28
2018-05-10T08:59:10.923Z,25.05
2018-05-10T09:01:38.422Z,25.10
2018-05-10T09:04:05.909Z,25.26
2018-05-10T09:06:33.354Z,24.37
2018-05-10T09:09:00.805Z,25.28
2018-05-10T09:11:28.295Z,24.21
2018-05-10T09:13:55.829Z,24.09
2018-05-10T09:16:23.245Z,23.17
2018-05-10T09:18:50.693Z,23.00
2018-05-10T09:21:18.148Z,22.41
2018-05-10T09:23:45.675Z,22.60
2018-05-10T09:26:13.188Z,22.57
2018-05-10T09:28:40.642Z,22.83
2018-05-10T09:31:08.102Z,22.47
2018-05-10T09:33:35.554Z,22.57
2018-05-10T09:36:03.018Z,21.90
2018-05-10T09:38:30.482Z,21.66
2018-05-10T09:40:57.974Z,22.10
2018-05-10T09:43:25.464Z,21.91
2018-05-10T09:45:52.943Z,21.87
2018-05-10T09:48:20.498Z,21.52
2018-05-10T09:50:47.959Z,21.98
2018-05-10T09:53:15.406Z,22.08
2018-05-10T09:55:42.861Z,21.46
2018-05-10T09:58:10.312Z,22.00
2018-05-10T10:00:37.771Z,21.84
2018-05-10T10:03:05.313Z,21.66
2018-05-10T10:05:32.768Z,21.25
2018-05-10T10:08:00.238Z,20.85
2018-05-10T10:10:27.968Z,21.07
2018-05-10T10:12:55.410Z,21.19
2018-05-10T10:15:22.854Z,21.14
2018-05-10T10:17:50.387Z,20.41
2018-05-10T10:20:17.816Z,20.50
2018-05-10T10:22:45.274Z,20.83
2018-05-10T10:25:12.760Z,20.88
2018-05-10T10:27:40.214Z,20.70
2018-05-10T10:30:07.665Z,20.56
2018-05-10T10:32:35.111Z,20.58
2018-05-10T10:35:02.585Z,20.63
2018-05-10T10:37:30.026Z,20.68
2018-05-10T10:39:57.749Z,20.60
2018-05-10T10:42:25.201Z,21.17
2018-05-10T10:44:52.655Z,21.21
2018-05-10T10:47:20.090Z,21.70
2018-05-10T10:49:47.525Z,21.40
2018-05-10T10:52:14.983Z,21.68
2018-05-10T10:54:42.440Z,21.38
2018-05-10T10:57:09.892Z,21.68
2018-05-10T10:59:37.340Z,21.80
2018-05-10T11:02:04.873Z,22.19
2018-05-10T11:04:32.335Z,22.33
2018-05-10T11:06:59.786Z,22.56
2018-05-10T11:09:27.262Z,23.16
2018-05-10T11:11:54.739Z,23.67
2018-05-10T11:14:22.164Z,24.27
2018-05-10T11:16:49.658Z,24.55
2018-05-10T11:19:17.095Z,24.84
2018-05-10T11:21:44.539Z,24.07
2018-05-10T11:24:11.988Z,23.90
2018-05-10T11:26:39.489Z,24.83
2018-05-10T11:29:06.944Z,24.61
2018-05-10T11:31:34.442Z,24.54
2018-05-10T11:34:01.940Z,25.25
2018-05-10T11:36:29.396Z,25.44
2018-05-10T11:38:56.939Z,25.85
2018-05-10T11:41:24.397Z,27.01
2018-05-10T11:43:51.835Z,28.34
2018-05-10T11:46:19.274Z,27.59
2018-05-10T11:48:46.810Z,27.06
2018-05-10T11:51:14.166Z,27.59
2018-05-10T11:53:41.602Z,28.03
2018-05-10T11:56:09.168Z,28.67
2018-05-10T11:58:36.623Z,28.38
2018-05-10T12:01:04.086Z,27.63
2018-05-10T12:03:31.525Z,25.67
2018-05-10T12:05:59.024Z,28.32
2018-05-10T12:08:26.465Z,28.98
2018-05-10T12:10:53.924Z,28.39
2018-05-10T12:13:21.382Z,29.19
2018-05-10T12:15:48.830Z,29.46
2018-05-10T12:18:16.274Z,27.75
2018-05-10T12:20:43.729Z,26.98
2018-05-10T12:23:11.200Z,26.59
2018-05-10T12:25:38.699Z,27.05
2018-05-10T12:28:06.130Z,28.40
2018-05-10T12:30:33.598Z,28.29
2018-05-10T12:33:01.070Z,30.51
2018-05-10T12:35:28.500Z,31.13
2018-05-10T12:37:55.972Z,30.80
2018-05-10T12:40:23.418Z,30.87
2018-05-10T12:42:50.861Z,31.01
2018-05-10T12:45:18.308Z,28.63
2018-05-10T12:47:45.748Z,26.44
2018-05-10T12:50:14.150Z,24.29
2018-05-10T12:52:41.753Z,23.43
2018-05-10T12:55:09.271Z,22.42
2018-05-10T12:57:36.715Z,21.63
2018-05-10T13:00:04.175Z,21.55
2018-05-10T13:02:31.624Z,20.99
2018-05-10T13:04:59.156Z,21.03
2018-05-10T13:07:26.611Z,20.57
2018-05-10T13:09:54.072Z,20.33
2018-05-10T13:12:21.520Z,20.08
2018-05-10T13:14:49.129Z,19.73
2018-05-10T13:17:16.586Z,19.90
2018-05-10T13:19:44.034Z,19.61
2018-05-10T13:22:11.492Z,19.96
2018-05-10T13:24:38.939Z,20.55
2018-05-10T13:27:06.416Z,20.37
2018-05-10T13:29:33.995Z,20.40
2018-05-10T13:32:01.451Z,20.99
2018-05-10T13:34:28.902Z,20.63
2018-05-10T13:36:56.332Z,20.95
2018-05-10T13:39:23.781Z,20.97
2018-05-10T13:41:51.367Z,20.99
2018-05-10T13:44:18.822Z,20.79
2018-05-10T13:46:46.261Z,20.28
2018-05-10T13:49:13.709Z,20.76
2018-05-10T13:51:41.177Z,20.31
2018-05-10T13:54:08.617Z,19.98
2018-05-10T13:56:36.083Z,19.73
2018-05-10T13:59:03.562Z,19.76
2018-05-10T14:01:31.050Z,19.05
2018-05-10T14:03:58.511Z,18.96
2018-05-10T14:06:25.958Z,19.31
2018-05-10T14:08:53.474Z,19.35
2018-05-10T14:11:20.963Z,18.69
2018-05-10T14:13:48.419Z,19.08
2018-05-10T14:16:15.882Z,18.60
2018-05-10T14:18:43.357Z,18.41
2018-05-10T14:21:10.809Z,17.98
2018-05-10T14:23:38.263Z,17.58
2018-05-10T14:26:05.741Z,17.56
2018-05-10T14:28:33.182Z,17.24
2018-05-10T14:31:00.650Z,16.66
2018-05-10T14:33:28.169Z,16.68
2018-05-10T14:35:55.617Z,15.94
2018-05-10T14:38:23.068Z,15.94
2018-05-10T14:40:50.490Z,15.85
2018-05-10T14:43:17.941Z,15.58
2018-05-10T14:45:45.429Z,15.77
2018-05-10T14:48:12.909Z,15.02
2018-05-10T14:50:40.463Z,14.58
2018-05-10T14:53:07.944Z,14.52
2018-05-10T14:55:35.409Z,14.23
2018-05-10T14:58:02.938Z,14.74
2018-05-10T15:00:31.035Z,14.73
2018-05-10T15:02:58.544Z,14.79
2018-05-10T15:05:26.030Z,14.64
2018-05-10T15:07:53.462Z,14.15
2018-05-10T15:10:20.921Z,14.15
2018-05-10T15:12:48.367Z,14.19
2018-05-10T15:15:15.856Z,13.73
2018-05-10T15:17:43.333Z,13.69
2018-05-10T15:20:10.787Z,13.19
2018-05-10T15:22:38.243Z,12.95
2018-05-10T15:25:05.690Z,12.72
2018-05-10T15:27:33.161Z,12.64
2018-05-10T15:30:00.638Z,12.56
2018-05-10T15:32:28.094Z,12.74
2018-05-10T15:34:55.619Z,12.59
2018-05-10T15:37:23.067Z,12.84
2018-05-10T15:39:50.515Z,12.69
2018-05-10T15:42:17.959Z,12.23
2018-05-10T15:44:45.401Z,12.26
2018-05-10T15:47:12.931Z,12.14
2018-05-10T15:49:40.576Z,12.39
2018-05-10T15:52:07.976Z,12.41
2018-05-10T15:54:35.460Z,12.15
2018-05-10T15:57:02.927Z,11.95
2018-05-10T15:59:30.385Z,12.46
2018-05-10T16:01:57.830Z,12.51
2018-05-10T16:04:25.362Z,12.75
2018-05-10T16:06:52.806Z,12.56
2018-05-10T16:09:20.259Z,12.10
2018-05-10T16:11:47.892Z,12.13
2018-05-10T16:14:15.354Z,12.20
2018-05-10T16:16:42.894Z,12.28
2018-05-10T16:19:10.351Z,12.50
2018-05-10T16:21:37.807Z,12.39
2018-05-10T16:24:05.258Z,12.62
2018-05-10T16:26:32.813Z,12.41
2018-05-10T16:29:00.173Z,12.60
2018-05-10T16:31:27.811Z,12.59
2018-05-10T16:33:55.291Z,12.56
2018-05-10T16:36:22.795Z,12.69
2018-05-10T16:38:50.269Z,12.82
2018-05-10T16:41:17.703Z,13.06
2018-05-10T16:43:45.140Z,12.86
2018-05-10T16:46:12.626Z,13.22
2018-05-10T16:48:40.071Z,13.78
2018-05-10T16:51:07.521Z,13.59
2018-05-10T16:53:34.972Z,13.46
2018-05-10T16:56:02.426Z,13.48
2018-05-10T16:58:29.881Z,13.74
2018-05-10T17:00:57.322Z,13.60
2018-05-10T17:03:24.773Z,13.96
2018-05-10T17:05:52.247Z,13.41
2018-05-10T17:08:19.708Z,13.21
2018-05-10T17:10:47.163Z,13.22
2018-05-10T17:13:14.626Z,12.95
2018-05-10T17:15:42.069Z,13.14
2018-05-10T17:18:09.505Z,13.28
2018-05-10T17:20:36.937Z,13.55
2018-05-10T17:23:04.431Z,13.85
2018-05-10T17:25:31.888Z,13.62
2018-05-10T17:27:59.345Z,13.32
2018-05-10T17:30:26.791Z,13.16
2018-05-10T17:32:54.266Z,13.50
2018-05-10T17:35:21.714Z,13.51
2018-05-10T17:37:49.166Z,13.57
2018-05-10T17:40:16.618Z,13.75
2018-05-10T17:42:44.074Z,13.47
2018-05-10T17:45:11.572Z,13.99
2018-05-10T17:47:39.014Z,13.69
2018-05-10T17:50:06.492Z,13.59
2018-05-10T17:52:33.943Z,13.79
2018-05-10T17:55:01.397Z,14.06
2018-05-10T17:57:28.844Z,13.92
2018-05-10T17:59:56.285Z,14.05
2018-05-10T18:02:23.730Z,13.97
2018-05-10T18:04:51.192Z,13.70
2018-05-10T18:07:18.662Z,14.25
2018-05-10T18:09:46.136Z,14.07
2018-05-10T18:12:13.586Z,14.06
2018-05-10T18:14:41.032Z,14.07
2018-05-10T18:17:08.629Z,14.32
2018-05-10T18:19:36.081Z,14.58
2018-05-10T18:22:03.535Z,14.62
2018-05-10T18:24:30.978Z,14.83
2018-05-10T18:26:58.418Z,14.74
2018-05-10T18:29:25.863Z,15.24
2018-05-10T18:31:53.302Z,15.11
2018-05-10T18:34:20.753Z,15.13
2018-05-10T18:36:48.206Z,15.15
2018-05-10T18:39:15.654Z,15.08
2018-05-10T18:41:43.111Z,15.42
2018-05-10T18:44:10.562Z,15.31
2018-05-10T18:46:38.002Z,14.95
2018-05-10T18:49:05.458Z,15.00
2018-05-10T18:51:32.911Z,14.85
2018-05-10T18:54:00.394Z,15.10
2018-05-10T18:56:27.843Z,15.20
2018-05-10T18:58:55.305Z,15.42
2018-05-10T19:01:22.758Z,15.49
2018-05-10T19:03:50.206Z,15.63
2018-05-10T19:06:17.782Z,15.37
2018-05-10T19:08:45.226Z,15.55
2018-05-10T19:11:12.677Z,15.33
2018-05-10T19:13:40.154Z,15.25
2018-05-10T19:16:07.603Z,15.24
2018-05-10T19:18:35.172Z,14.97
2018-05-10T19:21:02.615Z,15.41
2018-05-10T19:23:30.064Z,15.45
2018-05-10T19:25:57.509Z,15.19
2018-05-10T19:28:24.950Z,15.45
2018-05-10T19:30:52.394Z,15.31
2018-05-10T19:33:19.838Z,15.19
2018-05-10T19:35:47.327Z,15.41
2018-05-10T19:38:14.823Z,15.26
2018-05-10T19:40:42.283Z,15.33
2018-05-10T19:43:09.734Z,15.10
2018-05-10T19:45:37.173Z,14.91
2018-05-10T19:48:04.625Z,14.95
2018-05-10T19:50:32.064Z,15.01
2018-05-10T19:52:59.523Z,15.05
2018-05-10T19:55:26.963Z,14.97
2018-05-10T19:57:54.456Z,15.21
2018-05-10T20:00:21.903Z,14.95
2018-05-10T20:02:49.359Z,15.14
2018-05-10T20:05:16.826Z,15.14
2018-05-10T20:07:44.281Z,15.25
2018-05-10T20:10:11.739Z,15.41
2018-05-10T20:12:39.190Z,15.31
2018-05-10T20:15:06.675Z,14.93
2018-05-10T20:17:34.118Z,14.90
2018-05-10T20:20:01.583Z,15.36
2018-05-10T20:22:29.036Z,15.29
2018-05-10T20:24:56.476Z,15.16
2018-05-10T20:27:23.926Z,15.66
2018-05-10T20:29:51.356Z,16.16
2018-05-10T20:32:18.900Z,15.94
2018-05-10T20:34:46.319Z,16.02
2018-05-10T20:37:13.775Z,15.96
2018-05-10T20:39:41.222Z,15.54
2018-05-10T20:42:08.859Z,14.94
2018-05-10T20:44:36.659Z,15.27
2018-05-10T20:47:04.034Z,15.76
2018-05-10T20:49:31.539Z,15.47
2018-05-10T20:51:58.964Z,15.45
2018-05-10T20:54:26.439Z,15.31
2018-05-10T20:56:53.887Z,15.28
2018-05-10T20:59:21.331Z,15.14
2018-05-10T21:01:48.797Z,15.09
2018-05-10T21:04:16.305Z,15.30
2018-05-10T21:06:44.682Z,14.98
2018-05-10T21:09:12.126Z,15.15
2018-05-10T21:11:39.568Z,15.91
2018-05-10T21:14:07.005Z,16.13
2018-05-10T21:16:34.460Z,15.81
2018-05-10T21:19:01.930Z,15.41
2018-05-10T21:21:29.373Z,15.64
2018-05-10T21:23:56.815Z,15.26
2018-05-10T21:26:24.277Z,15.33
2018-05-10T21:28:51.717Z,15.37
2018-05-10T21:31:19.163Z,15.14
2018-05-10T21:33:46.619Z,15.04
2018-05-10T21:36:14.073Z,14.91
2018-05-10T21:38:41.521Z,15.02
2018-05-10T21:41:09.027Z,15.19
2018-05-10T21:43:36.499Z,14.89
2018-05-10T21:46:03.955Z,14.69
2018-05-10T21:48:31.438Z,14.62
2018-05-10T21:50:58.916Z,14.65
2018-05-10T21:53:26.429Z,14.63
2018-05-10T21:55:53.848Z,14.51
2018-05-10T21:58:21.294Z,14.51
2018-05-10T22:00:48.790Z,14.49
2018-05-10T22:03:16.220Z,14.61
2018-05-10T22:05:43.670Z,14.51
2018-05-10T22:10:45.071Z,14.33
2018-05-10T22:13:12.511Z,14.18
2018-05-10T22:15:39.989Z,14.29
2018-05-10T22:18:07.449Z,14.25
2018-05-10T22:20:34.893Z,14.03
2018-05-10T22:23:02.342Z,14.16
2018-05-10T22:25:29.849Z,14.21
2018-05-10T22:27:57.302Z,14.18
2018-05-10T22:30:24.763Z,14.03
2018-05-10T22:32:52.208Z,13.77
2018-05-10T22:35:19.670Z,13.76
2018-05-10T22:37:47.236Z,13.56
2018-05-10T22:40:14.676Z,13.61
2018-05-10T22:42:42.126Z,13.80
2018-05-10T22:45:09.590Z,14.31
2018-05-10T22:47:37.047Z,13.92
2018-05-10T22:50:04.493Z,14.00
2018-05-10T22:52:31.949Z,14.07
2018-05-10T22:54:59.479Z,14.14
2018-05-10T22:57:26.983Z,13.91
2018-05-10T22:59:54.389Z,13.84
2018-05-10T23:02:21.851Z,13.81
2018-05-10T23:04:49.328Z,13.90
2018-05-10T23:07:16.775Z,13.69
2018-05-10T23:12:18.099Z,13.35
2018-05-10T23:14:45.541Z,13.13
2018-05-10T23:17:12.974Z,13.11
2018-05-10T23:19:40.418Z,13.30
2018-05-10T23:22:07.884Z,13.14
2018-05-10T23:24:35.333Z,12.81
2018-05-10T23:27:02.780Z,13.07
2018-05-10T23:29:30.237Z,12.92
2018-05-10T23:31:57.731Z,13.07
2018-05-10T23:34:25.181Z,12.84
2018-05-10T23:36:52.633Z,12.99
2018-05-10T23:39:20.102Z,12.80
2018-05-10T23:41:47.552Z,12.98
2018-05-10T23:44:15.010Z,13.08
2018-05-10T23:46:42.471Z,13.04
2018-05-10T23:49:09.918Z,12.91
2018-05-10T23:51:37.362Z,12.81
2018-05-10T23:54:04.912Z,12.86
2018-05-10T23:56:32.375Z,12.70
2018-05-10T23:58:59.830Z,12.69
